Time;durP1;ratioP1;P1;durP2;ratioP2;P2;SDS_P1;SDS_P2;PMS_P1;PMS_P2;Temp;Humidity;BMP_temperature;BMP_pressure;BME280_temperature;BME280_humidity;BME280_pressure;Samples;Min_cycle;Max_cycle;Signal;HPM_P1;HPM_P2
2021/03/26 00:01:26;;;;;;;92.15;65.23;;;;;;;5.07;65.11;100988.64;113674;1200;103120;-81
2021/03/26 00:03:55;;;;;;;95.93;63.17;;;;;;;5.01;64.92;100989.49;113709;1198;103216;-80
2021/03/26 00:06:26;;;;;;;86.93;60.20;;;;;;;5.01;65.75;100985.95;113960;1199;104088;-80
2021/03/26 00:09:12;;;;;;;74.55;55.75;;;;;;;4.97;65.36;100987.71;113951;1199;103308;-79
2021/03/26 00:12:03;;;;;;;81.20;57.10;;;;;;;4.88;65.67;100990.29;113947;1203;103134;-81
2021/03/26 00:14:44;;;;;;;78.37;57.73;;;;;;;4.87;65.87;100990.28;113931;1198;103686;-80
2021/03/26 00:17:11;;;;;;;89.40;65.68;;;;;;;4.80;65.69;100984.95;113998;1196;103187;-81
2021/03/26 00:19:38;;;;;;;92.10;64.27;;;;;;;4.88;66.00;100992.03;114044;1196;103098;-82
2021/03/26 00:22:05;;;;;;;92.43;59.43;;;;;;;4.85;65.75;100988.52;114314;1196;103092;-80
2021/03/26 00:24:32;;;;;;;86.93;61.63;;;;;;;4.83;65.86;100989.38;114281;1196;103625;-80
2021/03/26 00:26:59;;;;;;;95.08;65.25;;;;;;;4.77;65.93;100979.67;114316;1195;103132;-80
2021/03/26 00:29:26;;;;;;;102.60;70.40;;;;;;;4.77;66.27;100987.59;114168;1196;103232;-82
2021/03/26 00:31:52;;;;;;;101.60;67.88;;;;;;;4.83;65.85;100987.61;114040;1196;103097;-85
2021/03/26 00:34:20;;;;;;;87.33;57.85;;;;;;;4.85;65.99;100993.79;114065;1196;103191;-80
2021/03/26 00:36:47;;;;;;;92.28;59.83;;;;;;;4.83;65.95;100994.66;114218;1195;103114;-81
2021/03/26 00:39:28;;;;;;;85.43;60.07;;;;;;;4.75;66.06;100991.95;114169;1196;103133;-82
2021/03/26 00:42:10;;;;;;;83.53;58.63;;;;;;;4.71;66.42;100989.30;114079;1196;103171;-80
2021/03/26 00:44:36;;;;;;;79.87;58.20;;;;;;;4.69;66.74;100979.61;114300;1196;103070;-81
2021/03/26 00:47:18;;;;;;;86.88;58.93;;;;;;;4.72;66.67;100975.20;114390;1196;103051;-81
2021/03/26 00:49:45;;;;;;;78.88;54.83;;;;;;;4.67;66.58;100976.06;114428;1195;103304;-80
2021/03/26 00:52:12;;;;;;;82.60;57.27;;;;;;;4.66;66.34;100987.48;114188;1196;103097;-79
2021/03/26 00:54:38;;;;;;;94.30;65.33;;;;;;;4.64;66.62;100996.28;114136;1196;103114;-80
2021/03/26 00:57:06;;;;;;;94.80;59.10;;;;;;;4.65;66.73;100985.73;114320;1196;103142;-79
2021/03/26 00:59:39;;;;;;;92.63;61.03;;;;;;;4.65;66.15;100982.20;114329;1196;103316;-80
2021/03/26 01:02:06;;;;;;;85.47;60.30;;;;;;;4.67;66.51;100978.70;114346;1195;103097;-81
2021/03/26 01:04:33;;;;;;;86.40;62.67;;;;;;;4.66;67.03;100981.33;114368;1196;103286;-82
2021/03/26 01:07:14;;;;;;;90.58;60.68;;;;;;;4.65;66.52;100979.55;114165;1200;103371;-84
2021/03/26 01:09:41;;;;;;;84.13;55.40;;;;;;;4.60;66.59;100981.27;114145;1200;103379;-79
2021/03/26 01:12:09;;;;;;;86.53;57.87;;;;;;;4.53;67.01;100980.34;114204;1199;103197;-80
2021/03/26 01:14:35;;;;;;;89.45;60.35;;;;;;;4.55;67.16;100973.34;114292;1199;103286;-82
2021/03/26 01:17:04;;;;;;;87.30;62.10;;;;;;;4.56;67.29;100979.48;114176;1199;103402;-80
2021/03/26 01:19:38;;;;;;;87.85;60.70;;;;;;;4.59;66.94;100968.98;114163;1199;103255;-80
2021/03/26 01:22:06;;;;;;;83.87;62.57;;;;;;;4.59;67.32;100974.26;114285;1200;103280;-80
2021/03/26 01:24:32;;;;;;;92.43;63.83;;;;;;;4.58;66.94;100980.39;114205;1199;103313;-80
2021/03/26 01:26:59;;;;;;;101.50;66.53;;;;;;;4.71;66.36;100984.02;114149;1199;103328;-81
2021/03/26 01:29:27;;;;;;;102.13;69.23;;;;;;;4.83;66.78;100977.05;114270;1199;103032;-81
2021/03/26 01:31:53;;;;;;;90.15;60.90;;;;;;;4.81;66.30;100981.45;114117;1200;103226;-82
2021/03/26 01:34:20;;;;;;;90.85;62.70;;;;;;;4.68;66.32;100975.20;114100;1199;103251;-79
2021/03/26 01:36:47;;;;;;;94.23;63.40;;;;;;;4.61;66.73;100977.77;114200;1200;103315;-80
2021/03/26 01:39:14;;;;;;;93.67;65.00;;;;;;;4.56;66.75;100983.02;114063;1199;103178;-81
2021/03/26 01:41:43;;;;;;;91.68;60.25;;;;;;;4.61;67.22;100981.31;114054;1199;103328;-79
2021/03/26 01:44:11;;;;;;;103.40;70.57;;;;;;;4.60;66.50;100978.63;114304;1196;103191;-79
2021/03/26 01:46:38;;;;;;;102.70;66.80;;;;;;;4.60;67.19;100981.27;114102;1196;103254;-81
2021/03/26 01:49:08;;;;;;;110.97;69.40;;;;;;;4.52;66.93;100979.47;114015;1196;103232;-84
2021/03/26 01:51:39;;;;;;;86.83;59.90;;;;;;;4.48;67.05;100982.96;114207;1196;103053;-79
2021/03/26 01:54:07;;;;;;;91.30;63.47;;;;;;;4.46;67.52;100982.05;114194;1196;103203;-81
2021/03/26 01:56:35;;;;;;;100.20;63.20;;;;;;;4.50;67.22;100978.56;114168;1196;103121;-80
2021/03/26 01:59:03;;;;;;;105.43;65.00;;;;;;;4.49;66.86;100984.73;114199;1196;103252;-82
2021/03/26 02:01:50;;;;;;;91.60;60.60;;;;;;;4.51;67.32;100988.25;113694;1199;103146;-80
2021/03/26 02:04:39;;;;;;;96.33;64.87;;;;;;;4.40;67.85;100989.03;113756;1202;103225;-79
2021/03/26 02:07:06;;;;;;;82.10;55.48;;;;;;;4.37;67.96;100981.97;113832;1202;103255;-83
2021/03/26 02:09:36;;;;;;;81.05;54.40;;;;;;;4.35;68.05;100989.88;113575;1202;103229;-80
2021/03/26 02:12:23;;;;;;;101.87;67.83;;;;;;;4.32;68.05;100981.95;113604;1203;103289;-80
2021/03/26 02:14:53;;;;;;;113.20;73.95;;;;;;;4.37;67.86;100989.88;113592;1203;103672;-81
2021/03/26 02:17:30;;;;;;;100.20;69.53;;;;;;;4.45;68.04;100992.59;113788;1199;103386;-81
2021/03/26 02:20:01;;;;;;;94.13;63.03;;;;;;;4.47;67.56;100990.86;114005;1200;103261;-81
2021/03/26 02:22:30;;;;;;;105.65;71.25;;;;;;;4.48;67.67;100990.00;113857;1200;103253;-80
2021/03/26 02:24:58;;;;;;;105.50;69.35;;;;;;;4.58;67.29;100996.22;113848;1199;103338;-81
2021/03/26 02:27:31;;;;;;;94.63;69.17;;;;;;;4.64;67.28;100991.88;114076;1199;103232;-81
2021/03/26 02:30:01;;;;;;;111.03;73.13;;;;;;;4.64;66.83;100993.64;114016;1200;103389;-81
2021/03/26 02:32:35;;;;;;;100.20;66.75;;;;;;;4.71;67.52;100990.16;114169;1200;103273;-80
2021/03/26 02:35:28;;;;;;;101.10;71.17;;;;;;;4.85;66.67;100993.79;114024;1199;103320;-81
2021/03/26 02:38:01;;;;;;;92.60;67.57;;;;;;;4.99;66.61;100993.00;114034;1199;103306;-80
2021/03/26 02:40:56;;;;;;;110.50;74.67;;;;;;;4.97;66.30;100985.08;114138;1196;103887;-87
2021/03/26 02:43:44;;;;;;;114.30;73.33;;;;;;;4.90;66.54;100985.89;114275;1196;103104;-80
2021/03/26 02:46:53;;;;;;;86.70;60.23;;;;;;;4.80;66.89;100984.09;114053;1199;103216;-79
2021/03/26 02:49:47;;;;;;;108.13;73.03;;;;;;;4.73;66.95;100987.53;114229;1199;103571;-80
2021/03/26 02:52:21;;;;;;;101.18;67.23;;;;;;;4.71;66.49;100990.16;114507;1196;103252;-83
2021/03/26 02:55:24;;;;;;;103.25;67.43;;;;;;;4.64;67.32;100988.37;114438;1196;103218;-79
2021/03/26 02:58:00;;;;;;;99.35;64.70;;;;;;;4.57;67.66;100984.80;114343;1196;103101;-80
2021/03/26 03:00:42;;;;;;;95.43;65.40;;;;;;;4.63;67.64;100986.59;114111;1196;103136;-81
2021/03/26 03:03:18;;;;;;;100.40;65.87;;;;;;;4.62;66.74;100990.97;114038;1196;103107;-80
2021/03/26 03:05:48;;;;;;;95.68;63.45;;;;;;;4.61;66.99;100996.23;113956;1196;103228;-80
2021/03/26 03:08:31;;;;;;;95.03;66.07;;;;;;;4.55;67.16;100989.16;114134;1196;103146;-81
2021/03/26 03:11:11;;;;;;;104.43;68.90;;;;;;;4.51;67.41;100990.89;114059;1196;103101;-80
2021/03/26 03:13:52;;;;;;;98.60;65.67;;;;;;;4.60;67.43;100994.46;113901;1196;103268;-80
2021/03/26 03:16:42;;;;;;;93.97;64.87;;;;;;;4.59;67.50;100990.09;114133;1196;103188;-79
2021/03/26 03:19:22;;;;;;;90.53;65.68;;;;;;;4.51;67.62;100980.34;114107;1196;103213;-82
2021/03/26 03:22:18;;;;;;;108.08;73.78;;;;;;;4.54;67.26;100984.75;114168;1196;103194;-81
2021/03/26 03:24:47;;;;;;;108.60;65.27;;;;;;;4.64;67.61;100988.37;114060;1195;103059;-81
2021/03/26 03:27:26;;;;;;;102.77;69.73;;;;;;;4.60;67.82;100983.91;114255;1196;103107;-80
2021/03/26 03:30:36;;;;;;;100.03;68.10;;;;;;;4.58;67.30;100983.91;113956;1198;103210;-82
2021/03/26 03:33:21;;;;;;;96.90;64.90;;;;;;;4.52;68.08;100981.23;113715;1200;104937;-82
2021/03/26 03:36:00;;;;;;;97.60;63.73;;;;;;;4.44;68.00;100985.54;114036;1199;103332;-80
2021/03/26 03:39:03;;;;;;;102.93;63.87;;;;;;;4.45;67.74;100987.31;113985;1200;103533;-81
2021/03/26 03:41:59;;;;;;;102.73;69.33;;;;;;;4.49;67.99;100978.55;114061;1199;105642;-79
2021/03/26 03:45:09;;;;;;;110.70;69.47;;;;;;;4.49;67.75;100986.47;113946;1199;103309;-81
2021/03/26 03:48:00;;;;;;;106.10;70.57;;;;;;;4.51;68.12;100987.38;113793;1202;103245;-80
2021/03/26 03:50:35;;;;;;;101.23;69.53;;;;;;;4.62;67.74;100990.09;113915;1200;103211;-80
2021/03/26 03:53:13;;;;;;;111.13;74.23;;;;;;;4.72;67.08;100999.86;113980;1200;103286;-78
2021/03/26 03:55:55;;;;;;;107.20;73.77;;;;;;;4.79;67.65;101000.78;114068;1200;103692;-80
2021/03/26 03:58:31;;;;;;;104.08;68.15;;;;;;;4.72;67.61;101004.23;114091;1198;103172;-80
2021/03/26 04:01:10;;;;;;;113.55;77.85;;;;;;;4.69;67.68;101003.35;114067;1200;103130;-82
2021/03/26 04:03:47;;;;;;;105.70;68.80;;;;;;;4.78;67.71;101009.56;113966;1200;103305;-80
2021/03/26 04:06:26;;;;;;;94.67;61.90;;;;;;;4.74;67.27;100999.86;113931;1199;103293;-80
2021/03/26 04:08:59;;;;;;;101.60;68.83;;;;;;;4.56;67.45;100995.31;113793;1199;103290;-81
2021/03/26 04:11:45;;;;;;;108.85;75.10;;;;;;;4.52;68.55;100999.70;113795;1196;102286;-80
2021/03/26 04:14:20;;;;;;;112.95;70.45;;;;;;;4.61;68.26;101010.33;114070;1195;103178;-82
2021/03/26 04:16:52;;;;;;;103.28;69.90;;;;;;;4.62;68.26;101003.29;114169;1196;103357;-80
2021/03/26 04:19:31;;;;;;;106.18;69.93;;;;;;;4.57;68.27;101002.36;113917;1196;103400;-80
2021/03/26 04:22:07;;;;;;;106.50;74.30;;;;;;;4.51;68.51;101009.35;114067;1195;103482;-80
2021/03/26 04:24:57;;;;;;;101.53;69.77;;;;;;;4.54;68.38;101007.63;113562;1196;103104;-80
2021/03/26 04:27:42;;;;;;;98.97;67.70;;;;;;;4.39;68.90;101001.34;113566;1196;103165;-80
2021/03/26 04:30:52;;;;;;;103.58;68.03;;;;;;;4.37;69.26;100997.80;113525;1196;103258;-81
2021/03/26 04:33:20;;;;;;;104.68;71.43;;;;;;;4.44;68.87;101004.00;113556;1196;104493;-80
2021/03/26 04:35:50;;;;;;;107.55;74.45;;;;;;;4.44;69.10;101004.00;113725;1196;103126;-80
2021/03/26 04:38:32;;;;;;;98.43;68.90;;;;;;;4.41;68.93;101007.53;113598;1196;103149;-80
2021/03/26 04:41:22;;;;;;;91.80;61.75;;;;;;;4.31;69.55;101008.31;113579;1196;103190;-81
2021/03/26 04:44:02;;;;;;;100.50;66.33;;;;;;;4.24;69.29;101004.73;113767;1196;103513;-79
2021/03/26 04:47:24;;;;;;;98.95;69.58;;;;;;;4.22;69.46;101003.81;114031;1195;103136;-80
2021/03/26 04:50:01;;;;;;;101.70;72.63;;;;;;;4.21;69.48;101015.23;113649;1196;103919;-79
2021/03/26 04:52:42;;;;;;;92.63;67.20;;;;;;;4.21;70.00;101009.95;113899;1195;103251;-80
2021/03/26 04:55:09;;;;;;;100.48;66.23;;;;;;;4.21;69.71;101012.59;114474;1196;103130;-84
2021/03/26 04:57:42;;;;;;;112.43;70.87;;;;;;;4.25;69.67;101005.60;114474;1196;103576;-79
2021/03/26 05:00:35;;;;;;;99.00;66.30;;;;;;;4.26;69.62;101017.92;114290;1196;103191;-82
2021/03/26 05:03:12;;;;;;;102.28;73.35;;;;;;;4.28;69.80;101018.80;114269;1196;103092;-81
2021/03/26 05:05:54;;;;;;;89.38;59.68;;;;;;;4.24;70.57;101017.01;114307;1196;103277;-81
2021/03/26 05:08:23;;;;;;;111.03;73.95;;;;;;;4.28;69.61;101016.16;114329;1195;103254;-80
2021/03/26 05:10:51;;;;;;;103.57;72.17;;;;;;;4.37;69.67;101024.16;114392;1196;103235;-80
2021/03/26 05:13:35;;;;;;;100.93;70.58;;;;;;;4.50;69.70;101019.89;114297;1194;103130;-80
2021/03/26 05:16:19;;;;;;;97.60;70.48;;;;;;;4.51;69.13;101019.03;114287;1195;103165;-80
2021/03/26 05:18:51;;;;;;;108.05;67.03;;;;;;;4.54;69.32;101023.45;114410;1196;103079;-82
2021/03/26 05:21:22;;;;;;;104.45;68.45;;;;;;;4.59;69.34;101025.25;113921;1196;103220;-80
2021/03/26 05:23:58;;;;;;;100.83;68.25;;;;;;;4.56;68.97;101034.88;114055;1195;103273;-81
2021/03/26 05:26:33;;;;;;;102.27;71.07;;;;;;;4.51;68.87;101035.73;113987;1196;103817;-79
2021/03/26 05:29:14;;;;;;;109.43;75.10;;;;;;;4.55;69.70;101038.41;113771;1196;103207;-80
2021/03/26 05:32:02;;;;;;;94.13;61.97;;;;;;;4.55;69.12;101041.92;114236;1196;103249;-80
2021/03/26 05:34:48;;;;;;;100.73;69.70;;;;;;;4.55;68.85;101041.05;114060;1196;103104;-81
2021/03/26 05:37:35;;;;;;;107.33;74.43;;;;;;;4.54;69.47;101037.52;114143;1196;103439;-86
2021/03/26 05:40:29;;;;;;;107.50;73.47;;;;;;;4.55;69.67;101043.69;114089;1196;103230;-81
2021/03/26 05:43:10;;;;;;;98.88;61.73;;;;;;;4.57;69.71;101041.93;114010;1196;103152;-83
2021/03/26 05:46:15;;;;;;;106.97;71.90;;;;;;;4.61;68.98;101049.91;113994;1196;104055;-81
2021/03/26 05:49:07;;;;;;;102.40;72.10;;;;;;;4.81;68.83;101047.42;114051;1196;103283;-81
2021/03/26 05:52:19;;;;;;;98.75;70.30;;;;;;;4.88;68.90;101052.73;114122;1196;103844;-81
2021/03/26 05:55:28;;;;;;;92.60;63.00;;;;;;;4.84;69.31;101050.08;113861;1196;103169;-80
2021/03/26 05:58:16;;;;;;;97.93;66.13;;;;;;;4.80;68.64;101045.66;113696;1196;103293;-80
2021/03/26 06:01:13;;;;;;;105.17;75.90;;;;;;;4.84;68.69;101057.13;113955;1199;103347;-81
2021/03/26 06:04:10;;;;;;;155.28;106.78;;;;;;;5.00;68.88;101055.48;114134;1199;102322;-82
2021/03/26 06:07:04;;;;;;;97.67;67.10;;;;;;;5.11;68.11;101052.91;114014;1199;103249;-80
2021/03/26 06:09:53;;;;;;;101.85;68.73;;;;;;;5.07;68.37;101059.05;113927;1199;103220;-79
2021/03/26 06:12:46;;;;;;;91.83;62.45;;;;;;;5.02;68.52;101057.27;114004;1196;103618;-80
2021/03/26 06:16:09;;;;;;;104.30;69.60;;;;;;;4.97;68.85;101058.08;113777;1199;103296;-83
2021/03/26 06:18:56;;;;;;;108.30;74.63;;;;;;;4.94;68.64;101069.49;113897;1199;103220;-81
2021/03/26 06:21:45;;;;;;;110.00;71.30;;;;;;;4.98;68.66;101059.86;114093;1196;103220;-80
2021/03/26 06:24:49;;;;;;;95.70;62.60;;;;;;;5.05;68.70;101063.42;114125;1196;103596;-78
2021/03/26 06:27:34;;;;;;;97.58;65.88;;;;;;;5.01;68.35;101067.78;114213;1196;104675;-80
2021/03/26 06:30:33;;;;;;;99.13;70.05;;;;;;;5.07;68.47;101064.33;114121;1196;103236;-83
2021/03/26 06:33:32;;;;;;;111.48;76.13;;;;;;;5.13;68.34;101073.17;114339;1196;103863;-82
2021/03/26 06:36:14;;;;;;;114.00;75.05;;;;;;;5.33;68.67;101080.32;114158;1196;103172;-80
2021/03/26 06:38:42;;;;;;;116.78;79.28;;;;;;;5.36;67.70;101081.23;114153;1196;103306;-81
2021/03/26 06:41:27;;;;;;;103.77;74.07;;;;;;;5.50;67.83;101083.07;114190;1196;103114;-80
2021/03/26 06:44:09;;;;;;;85.18;61.10;;;;;;;5.43;67.08;101081.28;114105;1196;104206;-81
2021/03/26 06:47:03;;;;;;;104.40;65.05;;;;;;;5.35;67.53;101070.66;114203;1195;103019;-82
2021/03/26 06:49:51;;;;;;;120.83;73.73;;;;;;;5.37;67.53;101082.11;114161;1195;103175;-80
2021/03/26 06:52:43;;;;;;;102.75;69.65;;;;;;;5.46;67.35;101092.73;114206;1196;103274;-80
2021/03/26 06:55:44;;;;;;;107.70;73.75;;;;;;;5.64;67.32;101091.09;113941;1198;103091;-79
2021/03/26 06:58:32;;;;;;;102.28;73.13;;;;;;;5.75;67.29;101092.01;113971;1199;103303;-82
2021/03/26 07:01:01;;;;;;;106.70;69.00;;;;;;;5.80;66.71;101084.98;114213;1196;103153;-80
2021/03/26 07:04:06;;;;;;;99.48;65.35;;;;;;;5.90;66.60;101083.25;114052;1196;103144;-86
2021/03/26 07:06:36;;;;;;;109.07;70.83;;;;;;;6.03;66.25;101092.16;114115;1196;103063;-81
2021/03/26 07:09:54;;;;;;;122.05;79.90;;;;;;;6.19;66.06;101093.09;114231;1196;103177;-82
2021/03/26 07:12:58;;;;;;;114.97;76.43;;;;;;;6.36;65.32;101101.08;113820;1196;103159;-82
2021/03/26 07:15:36;;;;;;;101.83;67.80;;;;;;;6.41;65.03;101094.04;114005;1196;103270;-80
2021/03/26 07:18:24;;;;;;;83.85;51.55;;;;;;;6.38;64.72;101098.44;114017;1199;103291;-82
2021/03/26 07:21:18;;;;;;;81.78;55.25;;;;;;;6.36;64.60;101093.14;113975;1199;103303;-79
2021/03/26 07:24:35;;;;;;;98.60;66.55;;;;;;;6.36;65.05;101087.85;113844;1199;103373;-80
2021/03/26 07:27:29;;;;;;;84.50;58.00;;;;;;;6.50;64.68;101090.51;113848;1200;103603;-79
2021/03/26 07:30:41;;;;;;;112.07;74.53;;;;;;;6.62;65.14;101084.35;113851;1199;103315;-81
2021/03/26 07:33:31;;;;;;;72.20;51.00;;;;;;;6.73;63.82;101081.71;113695;1200;103337;-80
2021/03/26 07:36:24;;;;;;;92.72;61.40;;;;;;;6.77;63.59;101084.38;113851;1199;103289;-82
2021/03/26 07:39:25;;;;;;;95.90;69.60;;;;;;;6.85;63.76;101090.55;113657;1203;104928;-82
2021/03/26 07:42:11;;;;;;;99.67;70.67;;;;;;;6.95;63.87;101086.13;113752;1200;103207;-81
2021/03/26 07:44:56;;;;;;;85.50;55.47;;;;;;;7.07;63.51;101085.23;113711;1198;103291;-79
2021/03/26 07:48:01;;;;;;;115.00;72.68;;;;;;;7.20;63.74;101091.42;113542;1200;103294;-80
2021/03/26 07:50:50;;;;;;;89.40;61.07;;;;;;;7.29;62.69;101094.06;113656;1200;103293;-81
2021/03/26 07:53:55;;;;;;;76.75;48.00;;;;;;;7.28;62.52;101092.28;113530;1200;104090;-79
2021/03/26 07:56:50;;;;;;;71.03;49.63;;;;;;;7.29;62.59;101085.20;113341;1196;103283;-79
2021/03/26 07:59:28;;;;;;;103.10;66.30;;;;;;;7.29;62.54;101095.80;113593;1196;103647;-80
2021/03/26 08:02:17;;;;;;;95.08;62.63;;;;;;;7.34;62.60;101094.03;113557;1194;103307;-79
2021/03/26 08:05:22;;;;;;;111.13;73.30;;;;;;;7.43;62.74;101095.80;113544;1196;103169;-80
2021/03/26 08:08:26;;;;;;;91.35;60.50;;;;;;;7.61;61.99;101105.45;113571;1196;103316;-80
2021/03/26 08:11:24;;;;;;;83.13;56.53;;;;;;;7.70;61.54;101105.42;113723;1196;103213;-80
2021/03/26 08:13:54;;;;;;;85.40;55.30;;;;;;;7.79;61.20;101097.45;113726;1194;103209;-82
2021/03/26 08:16:21;;;;;;;75.23;53.00;;;;;;;7.84;61.18;101111.58;113590;1196;103635;-78
2021/03/26 08:19:00;;;;;;;93.57;63.57;;;;;;;7.87;61.31;101098.29;113651;1196;103097;-80
2021/03/26 08:21:35;;;;;;;82.50;58.43;;;;;;;7.89;61.27;101098.31;113715;1196;103296;-79
2021/03/26 08:24:40;;;;;;;70.88;48.23;;;;;;;7.91;61.17;101103.61;113704;1196;103133;-80
2021/03/26 08:27:24;;;;;;;81.68;57.63;;;;;;;7.97;60.96;101104.46;113697;1196;103235;-82
2021/03/26 08:30:16;;;;;;;82.00;57.97;;;;;;;8.09;61.03;101103.53;114145;1195;103261;-81
2021/03/26 08:33:05;;;;;;;88.08;58.08;;;;;;;8.23;60.53;101102.58;113933;1196;103193;-81
2021/03/26 08:36:05;;;;;;;90.03;61.20;;;;;;;8.37;60.46;101106.04;113896;1196;103126;-81
2021/03/26 08:39:09;;;;;;;79.38;57.83;;;;;;;8.51;59.54;101104.19;114136;1196;103107;-78
2021/03/26 08:41:40;;;;;;;106.23;74.40;;;;;;;8.68;59.30;101106.73;113877;1196;103108;-81
2021/03/26 08:44:15;;;;;;;91.80;63.05;;;;;;;8.89;59.12;101109.23;113810;1196;103149;-80
2021/03/26 08:46:54;;;;;;;105.97;69.23;;;;;;;9.06;58.63;101112.63;113832;1196;103398;-80
2021/03/26 08:49:24;;;;;;;102.63;69.03;;;;;;;9.40;58.91;101114.09;113860;1196;103241;-84
2021/03/26 08:51:51;;;;;;;81.20;53.38;;;;;;;9.73;56.71;101117.30;114276;1196;103207;-83
2021/03/26 08:54:50;;;;;;;92.23;66.97;;;;;;;9.95;56.70;101117.95;114330;1196;104054;-80
2021/03/26 08:57:39;;;;;;;94.30;65.80;;;;;;;10.29;55.92;101120.16;114002;1196;103134;-80
2021/03/26 09:00:17;;;;;;;100.08;69.78;;;;;;;10.58;56.05;101122.44;114059;1196;103127;-82
2021/03/26 09:02:54;;;;;;;90.43;64.45;;;;;;;10.88;54.27;101126.42;113883;1196;103331;-81
2021/03/26 09:05:49;;;;;;;75.87;47.77;;;;;;;11.20;52.41;101125.02;113838;1196;103310;-80
2021/03/26 09:08:53;;;;;;;76.80;57.57;;;;;;;11.86;51.07;101122.02;113842;1196;103568;-80
2021/03/26 09:11:51;;;;;;;91.78;64.35;;;;;;;13.13;48.62;101120.09;113686;1194;103148;-83
2021/03/26 09:14:25;;;;;;;82.03;63.70;;;;;;;14.39;45.91;101112.15;113839;1196;103866;-81
2021/03/26 09:16:56;;;;;;;78.60;56.23;;;;;;;15.32;43.35;101119.91;113721;1196;103124;-82
2021/03/26 09:20:01;;;;;;;69.57;48.80;;;;;;;16.00;40.77;101118.38;114110;1196;103126;-82
2021/03/26 09:22:49;;;;;;;73.07;55.00;;;;;;;16.67;40.51;101107.75;113629;1195;103178;-80
2021/03/26 09:25:39;;;;;;;78.50;60.45;;;;;;;17.28;38.70;101114.25;113642;1195;103184;-80
2021/03/26 09:28:22;;;;;;;57.18;46.13;;;;;;;17.79;35.73;101114.71;113760;1196;103240;-78
2021/03/26 09:31:09;;;;;;;55.40;41.17;;;;;;;18.14;34.12;101110.44;113804;1196;103096;-83
2021/03/26 09:33:39;;;;;;;70.95;51.60;;;;;;;18.45;35.29;101108.98;113974;1196;103110;-82
2021/03/26 09:36:22;;;;;;;50.45;40.48;;;;;;;18.94;32.41;101116.53;113860;1196;103123;-79
2021/03/26 09:39:19;;;;;;;49.23;39.57;;;;;;;18.58;32.71;101113.77;113787;1196;103165;-80
2021/03/26 09:41:58;;;;;;;57.03;45.20;;;;;;;18.86;32.96;101114.19;113815;1196;103140;-84
2021/03/26 09:44:33;;;;;;;56.47;44.97;;;;;;;19.28;32.32;101111.25;113691;1196;103100;-83
2021/03/26 09:47:22;;;;;;;48.33;36.18;;;;;;;19.62;31.22;101110.36;113778;1196;103185;-81
2021/03/26 09:49:59;;;;;;;55.43;39.37;;;;;;;19.99;30.72;101105.72;113736;1196;103126;-81
2021/03/26 09:52:29;;;;;;;69.85;48.53;;;;;;;20.37;31.63;101113.52;113709;1196;103390;-83
2021/03/26 09:55:05;;;;;;;51.97;39.23;;;;;;;20.51;29.13;101107.34;113679;1196;103200;-83
2021/03/26 09:57:50;;;;;;;56.33;42.57;;;;;;;20.88;29.99;101105.23;113977;1196;103190;-81
2021/03/26 10:00:42;;;;;;;58.13;46.83;;;;;;;21.04;29.13;101101.64;114042;1196;103152;-81
2021/03/26 10:03:26;;;;;;;50.03;37.93;;;;;;;21.13;28.15;101103.80;114115;1196;103120;-85
2021/03/26 10:06:00;;;;;;;37.37;31.53;;;;;;;21.31;28.15;101100.95;113872;1196;103155;-83
2021/03/26 10:11:25;;;;;;;60.43;45.03;;;;;;;21.45;28.30;101095.56;113991;1196;103130;-81
2021/03/26 10:14:12;;;;;;;45.23;35.35;;;;;;;21.53;27.78;101098.70;113927;1196;103509;-80
2021/03/26 10:16:49;;;;;;;44.53;34.17;;;;;;;21.47;27.22;101098.17;113669;1196;103280;-84
2021/03/26 10:19:24;;;;;;;50.48;38.15;;;;;;;21.74;27.35;101109.21;114119;1196;103044;-80
2021/03/26 10:21:56;;;;;;;50.30;37.80;;;;;;;22.00;27.52;101093.99;113966;1196;103022;-84
2021/03/26 10:24:33;;;;;;;51.63;41.93;;;;;;;22.39;27.69;101091.56;113990;1196;103098;-83
2021/03/26 10:27:10;;;;;;;49.00;38.27;;;;;;;22.62;26.35;101089.18;114124;1196;103863;-81
2021/03/26 10:29:56;;;;;;;49.03;33.98;;;;;;;22.38;25.56;101089.84;113962;1196;103739;-81
2021/03/26 10:32:37;;;;;;;47.43;33.28;;;;;;;22.26;25.69;101091.47;114361;1196;103075;-82
2021/03/26 10:35:24;;;;;;;46.03;35.85;;;;;;;22.11;26.00;101084.30;113612;1198;103258;-81
2021/03/26 10:37:57;;;;;;;51.17;40.20;;;;;;;22.12;26.11;101081.49;113849;1198;103402;-85
2021/03/26 10:40:42;;;;;;;44.90;36.40;;;;;;;22.47;25.66;101075.67;114089;1196;103235;-85
2021/03/26 10:43:37;;;;;;;41.20;32.70;;;;;;;22.29;26.13;101080.41;114190;1196;103158;-82
2021/03/26 10:46:04;;;;;;;48.23;35.93;;;;;;;21.75;26.20;101078.39;114486;1196;103692;-86
2021/03/26 10:49:02;;;;;;;45.47;34.30;;;;;;;21.37;26.62;101076.20;114175;1196;103134;-82
2021/03/26 10:51:32;;;;;;;49.80;38.25;;;;;;;22.01;27.36;101070.47;114034;1196;103286;-88
2021/03/26 10:54:26;;;;;;;47.45;36.40;;;;;;;21.10;27.30;101074.20;113715;1196;103587;-81
2021/03/26 10:57:18;;;;;;;42.33;33.07;;;;;;;20.00;27.31;101080.41;113768;1196;103108;-83
2021/03/26 10:59:54;;;;;;;41.40;31.57;;;;;;;19.08;28.31;101078.03;113651;1194;103107;-82
2021/03/26 11:02:33;;;;;;;40.53;31.08;;;;;;;18.66;29.28;101079.20;113948;1196;103121;-82
2021/03/26 11:05:29;;;;;;;40.40;32.13;;;;;;;17.98;30.92;101075.23;113772;1196;103251;-83
2021/03/26 11:08:02;;;;;;;55.67;39.60;;;;;;;17.53;32.50;101077.22;114168;1196;103187;-82
2021/03/26 11:10:38;;;;;;;45.98;33.35;;;;;;;17.34;32.25;101076.27;114334;1196;103088;-83
2021/03/26 11:13:16;;;;;;;43.48;33.63;;;;;;;16.94;33.12;101072.61;114344;1196;103142;-84
2021/03/26 11:15:50;;;;;;;54.03;41.28;;;;;;;16.65;34.34;101067.48;113911;1196;103155;-83
2021/03/26 11:18:19;;;;;;;51.93;40.78;;;;;;;16.41;34.70;101066.66;114190;1196;103145;-84
2021/03/26 11:20:51;;;;;;;50.20;37.80;;;;;;;16.00;34.90;101078.08;114097;1196;103213;-84
2021/03/26 11:23:28;;;;;;;49.60;40.43;;;;;;;15.61;35.65;101081.30;114398;1196;104748;-84
2021/03/26 11:25:57;;;;;;;52.60;40.48;;;;;;;15.28;35.99;101070.83;114217;1196;103116;-85
2021/03/26 11:28:28;;;;;;;57.48;44.08;;;;;;;15.08;37.34;101076.03;114230;1196;103590;-83
2021/03/26 11:31:31;;;;;;;60.10;44.93;;;;;;;14.91;37.71;101069.41;114365;1196;103204;-84
2021/03/26 11:34:08;;;;;;;60.33;45.50;;;;;;;14.85;38.65;101073.19;114312;1196;103688;-83
2021/03/26 11:36:47;;;;;;;59.20;44.30;;;;;;;14.68;38.31;101075.55;114398;1196;103708;-86
2021/03/26 11:39:28;;;;;;;58.55;41.95;;;;;;;14.54;38.80;101065.22;114431;1196;103219;-84
2021/03/26 11:41:59;;;;;;;59.90;45.17;;;;;;;14.42;39.36;101068.30;114307;1196;103178;-82
2021/03/26 11:44:30;;;;;;;61.48;46.95;;;;;;;14.33;39.47;101056.95;114291;1196;103127;-82
2021/03/26 11:47:07;;;;;;;56.40;43.95;;;;;;;14.28;39.73;101066.94;114230;1196;103117;-81
2021/03/26 11:49:39;;;;;;;52.03;41.40;;;;;;;14.21;39.54;101065.38;114198;1196;103576;-82
2021/03/26 11:52:16;;;;;;;47.40;33.93;;;;;;;14.05;39.15;101067.65;114190;1195;103139;-82
2021/03/26 11:55:04;;;;;;;41.35;29.00;;;;;;;13.90;39.57;101066.28;114530;1196;103268;-84
2021/03/26 11:57:48;;;;;;;47.77;38.40;;;;;;;13.84;40.26;101063.80;114214;1196;103203;-83
2021/03/26 12:00:32;;;;;;;56.63;41.33;;;;;;;13.81;40.27;101061.22;114282;1196;103854;-83
2021/03/26 12:03:07;;;;;;;58.85;44.10;;;;;;;13.75;40.68;101054.22;114148;1196;103358;-84
2021/03/26 12:05:54;;;;;;;50.78;38.90;;;;;;;13.74;40.65;101059.63;114324;1194;103764;-83